Time;durP1;ratioP1;P1;durP2;ratioP2;P2;SDS_P1;SDS_P2;PMS_P1;PMS_P2;Temp;Humidity;BMP_temperature;BMP_pressure;BME280_temperature;BME280_humidity;BME280_pressure;Samples;Min_cycle;Max_cycle;Signal;HPM_P1;HPM_P2
2022/10/05 00:02:24;;;;;;;8.95;4.65;;;;;;;;;;5077167;28;20044;-72
2022/10/05 00:04:55;;;;;;;7.63;3.83;;;;;;;;;;5076468;28;20083;-72
2022/10/05 00:07:21;;;;;;;10.30;6.35;;;;;;;;;;5076660;28;20040;-72
2022/10/05 00:09:55;;;;;;;14.10;7.65;;;;;;;;;;5076139;28;20128;-72
2022/10/05 00:12:22;;;;;;;9.98;5.78;;;;;;;;;;5077175;28;20042;-72
2022/10/05 00:14:49;;;;;;;9.63;5.07;;;;;;;;;;5076041;28;20032;-72
2022/10/05 00:17:22;;;;;;;9.38;5.13;;;;;;;;;;5075977;28;20070;-72
2022/10/05 00:19:52;;;;;;;10.68;5.20;;;;;;;;;;5076271;28;20071;-72
2022/10/05 00:22:29;;;;;;;5.15;4.63;;;;;;;;;;5076328;28;20422;-72
2022/10/05 00:24:57;;;;;;;3.72;3.40;;;;;;;;;;5076171;28;20045;-72
2022/10/05 00:27:30;;;;;;;6.30;3.78;;;;;;;;;;5076028;28;20075;-72
2022/10/05 00:29:58;;;;;;;8.05;4.10;;;;;;;;;;5075939;28;20045;-72
2022/10/05 00:32:24;;;;;;;10.23;4.72;;;;;;;;;;5076549;28;20052;-72
2022/10/05 00:34:50;;;;;;;8.82;4.90;;;;;;;;;;5075561;28;20041;-72
2022/10/05 00:37:16;;;;;;;5.32;4.13;;;;;;;;;;5075813;28;20044;-72
2022/10/05 00:39:42;;;;;;;8.25;3.95;;;;;;;;;;5075554;28;20041;-72
2022/10/05 00:42:27;;;;;;;11.20;4.03;;;;;;;;;;5075740;28;20043;-72
2022/10/05 00:45:04;;;;;;;5.63;3.75;;;;;;;;;;5075374;28;20040;-72
2022/10/05 00:47:42;;;;;;;9.93;3.58;;;;;;;;;;5075674;28;20075;-72
2022/10/05 00:50:27;;;;;;;7.55;4.25;;;;;;;;;;5075576;28;20047;-72
2022/10/05 00:52:59;;;;;;;6.65;4.00;;;;;;;;;;5075610;28;20560;-72
2022/10/05 00:55:28;;;;;;;5.63;3.58;;;;;;;;;;5075059;28;20056;-72
2022/10/05 00:58:11;;;;;;;5.53;4.68;;;;;;;;;;5075716;28;20521;-72
2022/10/05 01:01:06;;;;;;;6.35;4.82;;;;;;;;;;5075716;28;20048;-72
2022/10/05 01:03:50;;;;;;;8.48;3.92;;;;;;;;;;5066458;28;20067;-72
2022/10/05 01:06:25;;;;;;;6.63;3.83;;;;;;;;;;5075464;28;20097;-72
2022/10/05 01:08:51;;;;;;;6.85;3.75;;;;;;;;;;5075272;28;20037;-72
2022/10/05 01:11:36;;;;;;;7.35;3.50;;;;;;;;;;5075744;28;20098;-72
2022/10/05 01:14:15;;;;;;;5.65;3.80;;;;;;;;;;5074621;28;20048;-72
2022/10/05 01:16:47;;;;;;;7.55;3.50;;;;;;;;;;5075250;28;20575;-72
2022/10/05 01:19:32;;;;;;;5.43;3.28;;;;;;;;;;5075068;28;20043;-72
2022/10/05 01:22:04;;;;;;;4.45;3.40;;;;;;;;;;5075251;28;20093;-72
2022/10/05 01:24:45;;;;;;;6.10;3.00;;;;;;;;;;5074866;28;20028;-72
2022/10/05 01:27:32;;;;;;;4.72;2.85;;;;;;;;;;5074864;28;20049;-72
2022/10/05 01:30:01;;;;;;;15.88;8.60;;;;;;;;;;5074906;28;20117;-72
2022/10/05 01:32:37;;;;;;;6.82;4.50;;;;;;;;;;5074217;28;20078;-72
2022/10/05 01:35:12;;;;;;;6.72;3.30;;;;;;;;;;5074726;28;20085;-72
2022/10/05 01:38:02;;;;;;;5.25;3.78;;;;;;;;;;5074495;28;20098;-72
2022/10/05 01:40:33;;;;;;;8.82;3.55;;;;;;;;;;5069213;28;20037;-72
2022/10/05 01:43:02;;;;;;;9.07;5.20;;;;;;;;;;5074631;28;20049;-72
2022/10/05 01:45:48;;;;;;;13.45;8.35;;;;;;;;;;5074659;28;20040;-72
2022/10/05 01:48:23;;;;;;;15.52;7.05;;;;;;;;;;5074534;28;20533;-72
2022/10/05 01:50:56;;;;;;;11.35;5.75;;;;;;;;;;5074607;28;20040;-72
2022/10/05 01:53:34;;;;;;;5.10;4.07;;;;;;;;;;5074544;28;20043;-72
2022/10/05 01:56:19;;;;;;;5.05;3.05;;;;;;;;;;5074320;28;20087;-72
2022/10/05 01:59:00;;;;;;;7.43;3.20;;;;;;;;;;5074453;28;20045;-72
2022/10/05 02:01:26;;;;;;;11.02;6.68;;;;;;;;;;5074703;28;20060;-72
2022/10/05 02:04:05;;;;;;;5.65;4.80;;;;;;;;;;5074673;28;20045;-72
2022/10/05 02:06:34;;;;;;;8.45;5.80;;;;;;;;;;5074419;28;20078;-72
2022/10/05 02:09:19;;;;;;;11.60;5.10;;;;;;;;;;5074424;28;20029;-72
2022/10/05 02:11:48;;;;;;;5.80;4.38;;;;;;;;;;5074415;28;20033;-72
2022/10/05 02:14:19;;;;;;;10.13;4.38;;;;;;;;;;5074480;28;20051;-72
2022/10/05 02:16:47;;;;;;;6.60;4.25;;;;;;;;;;5074582;28;20083;-72
2022/10/05 02:19:31;;;;;;;6.47;3.53;;;;;;;;;;5074323;28;20068;-72
2022/10/05 02:22:04;;;;;;;4.85;3.40;;;;;;;;;;5074046;28;20037;-72
2022/10/05 02:25:00;;;;;;;5.22;3.50;;;;;;;;;;5074094;28;20076;-72
2022/10/05 02:27:37;;;;;;;4.88;3.28;;;;;;;;;;5065395;28;20052;-72
2022/10/05 02:30:05;;;;;;;4.60;3.35;;;;;;;;;;5073669;28;20068;-72
2022/10/05 02:32:40;;;;;;;5.05;3.42;;;;;;;;;;5074532;28;20052;-72
2022/10/05 02:35:12;;;;;;;5.80;3.15;;;;;;;;;;5074061;28;20032;-72
2022/10/05 02:37:57;;;;;;;4.38;3.00;;;;;;;;;;5074785;28;20071;-72
2022/10/05 02:40:23;;;;;;;6.95;3.28;;;;;;;;;;5074629;28;20111;-72
2022/10/05 02:43:08;;;;;;;10.02;3.08;;;;;;;;;;5074128;28;20093;-72
2022/10/05 02:45:34;;;;;;;5.45;3.33;;;;;;;;;;5072808;28;20449;-72
2022/10/05 02:48:09;;;;;;;5.28;3.28;;;;;;;;;;5074026;28;20044;-72
2022/10/05 02:50:35;;;;;;;6.00;2.85;;;;;;;;;;5074066;28;20071;-72
2022/10/05 02:53:08;;;;;;;4.15;3.13;;;;;;;;;;5074296;28;20040;-72
2022/10/05 02:55:49;;;;;;;5.15;2.90;;;;;;;;;;5077118;28;20124;-73
2022/10/05 02:58:15;;;;;;;;;;;;;;;;;;5078042;28;20071;-73
2022/10/05 03:00:47;;;;;;;5.30;2.88;;;;;;;;;;5077660;28;19909;-73
2022/10/05 03:03:32;;;;;;;6.18;2.85;;;;;;;;;;5077880;28;20041;-72
2022/10/05 03:06:00;;;;;;;8.02;3.40;;;;;;;;;;5077323;28;20044;-72
2022/10/05 03:08:30;;;;;;;5.53;3.67;;;;;;;;;;5077751;28;20131;-72
2022/10/05 03:10:59;;;;;;;5.15;2.80;;;;;;;;;;5077431;28;20068;-72
2022/10/05 03:13:25;;;;;;;6.50;3.22;;;;;;;;;;5077554;28;20072;-72
2022/10/05 03:16:09;;;;;;;5.70;3.08;;;;;;;;;;5077037;28;20448;-72
2022/10/05 03:18:54;;;;;;;5.93;2.97;;;;;;;;;;5077543;28;20037;-72
2022/10/05 03:21:21;;;;;;;5.15;2.88;;;;;;;;;;5077919;28;20044;-72
2022/10/05 03:23:52;;;;;;;3.05;2.60;;;;;;;;;;5077500;28;20098;-72
2022/10/05 03:26:18;;;;;;;5.65;2.80;;;;;;;;;;5077570;28;20433;-72
2022/10/05 03:28:47;;;;;;;4.97;2.90;;;;;;;;;;5077013;28;20045;-72
2022/10/05 03:31:14;;;;;;;3.38;3.00;;;;;;;;;;5077432;28;20044;-72
2022/10/05 03:33:45;;;;;;;4.30;2.50;;;;;;;;;;5077319;28;20045;-72
2022/10/05 03:36:11;;;;;;;3.55;2.58;;;;;;;;;;5077330;28;20070;-72
2022/10/05 03:38:55;;;;;;;3.85;2.97;;;;;;;;;;5076907;28;20049;-72
2022/10/05 03:41:21;;;;;;;4.85;2.42;;;;;;;;;;5077088;28;20126;-72
2022/10/05 03:44:06;;;;;;;3.70;2.70;;;;;;;;;;5076940;28;20590;-73
2022/10/05 03:46:39;;;;;;;4.68;3.17;;;;;;;;;;5077124;28;20044;-72
2022/10/05 03:49:16;;;;;;;4.35;2.67;;;;;;;;;;5077187;28;20036;-72
2022/10/05 03:51:44;;;;;;;5.03;3.00;;;;;;;;;;5076987;28;20055;-72
2022/10/05 03:54:30;;;;;;;4.00;3.05;;;;;;;;;;5076457;28;20059;-72
2022/10/05 03:57:15;;;;;;;8.65;2.70;;;;;;;;;;5080777;28;20044;-72
2022/10/05 03:59:56;;;;;;;3.22;2.70;;;;;;;;;;5096380;28;20039;-73
2022/10/05 04:02:27;;;;;;;4.50;2.85;;;;;;;;;;5094320;28;20118;-71
2022/10/05 04:04:58;;;;;;;4.65;2.75;;;;;;;;;;5074215;28;20097;-72
2022/10/05 04:07:24;;;;;;;;;;;;;;;;;;5075117;28;20044;-72
2022/10/05 04:09:52;;;;;;;4.90;3.53;;;;;;;;;;5073539;28;20374;-72
2022/10/05 04:12:23;;;;;;;8.93;3.72;;;;;;;;;;5074489;28;20037;-72
2022/10/05 04:14:53;;;;;;;7.45;2.67;;;;;;;;;;5071711;28;20123;-72
2022/10/05 04:17:30;;;;;;;4.57;2.45;;;;;;;;;;5074636;28;20542;-72
2022/10/05 04:19:59;;;;;;;5.20;2.90;;;;;;;;;;5072749;28;20499;-72
2022/10/05 04:22:38;;;;;;;5.72;2.67;;;;;;;;;;5074566;28;20075;-72
2022/10/05 04:25:04;;;;;;;5.22;2.65;;;;;;;;;;5074223;28;20048;-72
2022/10/05 04:27:33;;;;;;;5.07;2.60;;;;;;;;;;5074048;28;20499;-72
2022/10/05 04:30:07;;;;;;;2.60;2.22;;;;;;;;;;5074402;28;20033;-72
2022/10/05 04:32:56;;;;;;;3.72;2.20;;;;;;;;;;5072038;28;20049;-71
2022/10/05 04:35:40;;;;;;;3.97;2.67;;;;;;;;;;5066784;28;20074;-72
2022/10/05 04:38:09;;;;;;;5.53;2.60;;;;;;;;;;5073640;28;20083;-72
2022/10/05 04:40:50;;;;;;;4.93;2.85;;;;;;;;;;5074525;28;20399;-72
2022/10/05 04:43:27;;;;;;;6.30;2.65;;;;;;;;;;5075580;28;20040;-72
2022/10/05 04:45:56;;;;;;;6.65;3.20;;;;;;;;;;5075524;28;20048;-72
2022/10/05 04:48:40;;;;;;;6.03;3.05;;;;;;;;;;5075391;28;20048;-72
2022/10/05 04:51:25;;;;;;;5.80;2.47;;;;;;;;;;5075347;28;20106;-72
2022/10/05 04:53:54;;;;;;;5.88;2.70;;;;;;;;;;5075353;28;20063;-72
2022/10/05 04:56:29;;;;;;;4.32;2.83;;;;;;;;;;5075074;28;20056;-72
2022/10/05 04:59:10;;;;;;;3.17;2.50;;;;;;;;;;5074952;28;20045;-72
2022/10/05 05:01:37;;;;;;;5.00;2.63;;;;;;;;;;5075188;28;20051;-72
2022/10/05 05:04:14;;;;;;;2.85;2.55;;;;;;;;;;5075073;28;20494;-72
2022/10/05 05:06:40;;;;;;;2.83;2.63;;;;;;;;;;5075788;28;20040;-72
2022/10/05 05:09:09;;;;;;;3.88;2.65;;;;;;;;;;5075276;28;20506;-72
2022/10/05 05:11:54;;;;;;;2.88;2.60;;;;;;;;;;5074862;28;20047;-72
2022/10/05 05:14:25;;;;;;;4.75;2.90;;;;;;;;;;5074862;28;20041;-72
2022/10/05 05:17:10;;;;;;;6.72;2.60;;;;;;;;;;5073814;28;20048;-72
2022/10/05 05:19:39;;;;;;;11.13;3.90;;;;;;;;;;5075071;28;20029;-72
2022/10/05 05:22:20;;;;;;;8.50;3.58;;;;;;;;;;5075503;28;20037;-71
2022/10/05 05:24:52;;;;;;;11.25;4.00;;;;;;;;;;5075103;28;20070;-70
2022/10/05 05:27:37;;;;;;;7.15;3.22;;;;;;;;;;5074951;28;20492;-70
2022/10/05 05:30:18;;;;;;;7.07;3.72;;;;;;;;;;5074596;28;20041;-70
2022/10/05 05:32:44;;;;;;;7.53;3.42;;;;;;;;;;5074210;28;20105;-70
2022/10/05 05:35:29;;;;;;;6.65;3.30;;;;;;;;;;5073582;28;20075;-70
2022/10/05 05:38:14;;;;;;;9.93;8.55;;;;;;;;;;5072132;28;20098;-70
2022/10/05 05:40:44;;;;;;;5.95;4.68;;;;;;;;;;5071321;28;20037;-70
2022/10/05 05:43:28;;;;;;;4.75;2.97;;;;;;;;;;5073762;28;20036;-70
2022/10/05 05:45:55;;;;;;;4.80;2.67;;;;;;;;;;5072212;28;20036;-70
2022/10/05 05:48:39;;;;;;;9.30;2.90;;;;;;;;;;5073531;28;20052;-70
2022/10/05 05:51:17;;;;;;;4.05;2.55;;;;;;;;;;5070904;28;20047;-70
2022/10/05 05:53:49;;;;;;;6.30;2.92;;;;;;;;;;5073513;28;20115;-70
2022/10/05 05:56:30;;;;;;;4.40;2.60;;;;;;;;;;5074308;28;20510;-70
2022/10/05 05:58:56;;;;;;;;;;;;;;;;;;5074699;28;20036;-70
2022/10/05 06:01:30;;;;;;;3.45;2.00;;;;;;;;;;5074144;28;19915;-70
2022/10/05 06:04:16;;;;;;;4.78;2.25;;;;;;;;;;5074055;28;20398;-71
2022/10/05 06:06:46;;;;;;;5.65;3.15;;;;;;;;;;5073552;28;20044;-71
2022/10/05 06:09:35;;;;;;;6.28;2.97;;;;;;;;;;5073674;28;20045;-71
2022/10/05 06:12:04;;;;;;;3.92;3.25;;;;;;;;;;5034787;28;20048;-71
2022/10/05 06:14:33;;;;;;;5.68;2.67;;;;;;;;;;5054173;28;20052;-70
2022/10/05 06:17:03;;;;;;;3.35;2.30;;;;;;;;;;5054187;28;20053;-72
2022/10/05 06:19:32;;;;;;;5.75;2.10;;;;;;;;;;5064192;28;20119;-74
2022/10/05 06:22:02;;;;;;;2.70;2.08;;;;;;;;;;5072773;28;20036;-71
2022/10/05 06:24:28;;;;;;;4.80;2.28;;;;;;;;;;5073113;28;20050;-72
2022/10/05 06:26:55;;;;;;;3.47;1.80;;;;;;;;;;5073648;28;20036;-72
2022/10/05 06:29:23;;;;;;;4.50;2.17;;;;;;;;;;5076861;28;20044;-72
2022/10/05 06:31:52;;;;;;;4.43;2.28;;;;;;;;;;5078031;28;20044;-71
2022/10/05 06:34:27;;;;;;;6.85;2.10;;;;;;;;;;5078120;28;20045;-72
2022/10/05 06:37:01;;;;;;;2.65;1.70;;;;;;;;;;5077552;28;20118;-71
2022/10/05 06:39:27;;;;;;;4.93;2.10;;;;;;;;;;5077246;28;20112;-72
2022/10/05 06:41:54;;;;;;;6.63;2.53;;;;;;;;;;5077522;28;20043;-73
2022/10/05 06:44:25;;;;;;;10.70;2.58;;;;;;;;;;5077457;28;20045;-73
2022/10/05 06:47:09;;;;;;;7.35;2.30;;;;;;;;;;5076643;28;20059;-72
2022/10/05 06:49:38;;;;;;;6.55;2.25;;;;;;;;;;5077611;28;20391;-73
2022/10/05 06:52:05;;;;;;;7.85;2.40;;;;;;;;;;5077899;28;20048;-73
2022/10/05 06:54:31;;;;;;;2.28;2.13;;;;;;;;;;5077440;28;20044;-73
2022/10/05 06:57:03;;;;;;;6.70;2.85;;;;;;;;;;5077326;28;20061;-72
2022/10/05 06:59:47;;;;;;;6.78;2.60;;;;;;;;;;5077681;28;20041;-73
2022/10/05 07:02:23;;;;;;;9.02;3.00;;;;;;;;;;5077733;28;20044;-73
2022/10/05 07:05:08;;;;;;;6.30;3.10;;;;;;;;;;5077763;28;20044;-73
2022/10/05 07:07:37;;;;;;;5.95;2.83;;;;;;;;;;5077591;28;20047;-73
2022/10/05 07:10:03;;;;;;;4.38;3.15;;;;;;;;;;5077266;28;20499;-73
2022/10/05 07:12:32;;;;;;;3.50;2.20;;;;;;;;;;5077557;28;20513;-73
2022/10/05 07:14:58;;;;;;;8.18;3.10;;;;;;;;;;5077166;28;20037;-73
2022/10/05 07:17:43;;;;;;;7.35;3.03;;;;;;;;;;5077895;28;20506;-73
2022/10/05 07:20:12;;;;;;;4.75;2.00;;;;;;;;;;5077980;28;20051;-73
2022/10/05 07:22:54;;;;;;;3.65;2.08;;;;;;;;;;5077368;28;20048;-73
2022/10/05 07:25:28;;;;;;;2.15;1.77;;;;;;;;;;5076386;28;20506;-74
2022/10/05 07:27:54;;;;;;;7.53;1.98;;;;;;;;;;5076853;28;20052;-74
2022/10/05 07:30:21;;;;;;;8.00;2.35;;;;;;;;;;5076899;28;20040;-74
2022/10/05 07:32:59;;;;;;;7.50;2.22;;;;;;;;;;5077708;28;20040;-75
2022/10/05 07:38:31;;;;;;;6.03;2.40;;;;;;;;;;5075720;28;20110;-75
2022/10/05 07:41:05;;;;;;;3.35;1.67;;;;;;;;;;5073389;28;20078;-74
2022/10/05 07:43:36;;;;;;;3.17;1.98;;;;;;;;;;5075674;28;20480;-74
2022/10/05 07:46:05;;;;;;;6.30;1.85;;;;;;;;;;5075677;28;20097;-74
2022/10/05 07:48:32;;;;;;;4.75;2.10;;;;;;;;;;5075888;28;20064;-74
2022/10/05 07:51:05;;;;;;;6.53;2.47;;;;;;;;;;5076427;28;20506;-74
2022/10/05 07:53:31;;;;;;;3.97;2.50;;;;;;;;;;5076454;28;20147;-74
2022/10/05 07:56:01;;;;;;;3.60;2.38;;;;;;;;;;5076519;28;20055;-75
2022/10/05 07:58:34;;;;;;;4.50;2.65;;;;;;;;;;5075537;28;20120;-74
2022/10/05 08:01:03;;;;;;;8.85;2.80;;;;;;;;;;5076861;28;20051;-75
2022/10/05 08:03:44;;;;;;;5.80;2.60;;;;;;;;;;5077148;28;20089;-75
2022/10/05 08:06:27;;;;;;;6.70;3.00;;;;;;;;;;5077216;28;20056;-75
2022/10/05 08:08:56;;;;;;;6.28;3.13;;;;;;;;;;5075838;28;20127;-75
2022/10/05 08:11:41;;;;;;;6.18;3.10;;;;;;;;;;5076569;28;20029;-75
2022/10/05 08:14:07;;;;;;;7.80;2.58;;;;;;;;;;5076763;28;20115;-75
2022/10/05 08:16:36;;;;;;;5.13;2.70;;;;;;;;;;5076525;28;20048;-75
2022/10/05 08:19:08;;;;;;;6.10;2.90;;;;;;;;;;5076187;28;20032;-74
2022/10/05 08:21:39;;;;;;;11.30;4.22;;;;;;;;;;5076769;28;20101;-75
2022/10/05 08:24:10;;;;;;;9.40;3.58;;;;;;;;;;5076602;28;20037;-75
2022/10/05 08:26:36;;;;;;;8.32;3.53;;;;;;;;;;5077066;28;20472;-75
2022/10/05 08:29:09;;;;;;;7.93;3.78;;;;;;;;;;5076284;28;20139;-75
2022/10/05 08:31:37;;;;;;;23.80;15.75;;;;;;;;;;5076266;28;20032;-75
2022/10/05 08:34:21;;;;;;;26.08;16.83;;;;;;;;;;5076495;28;20047;-75
2022/10/05 08:36:57;;;;;;;34.65;20.83;;;;;;;;;;5075172;28;20197;-75
2022/10/05 08:39:25;;;;;;;45.03;30.25;;;;;;;;;;5069130;28;20487;-74
2022/10/05 08:42:09;;;;;;;40.63;28.45;;;;;;;;;;5064748;28;20044;-74
2022/10/05 08:44:54;;;;;;;36.45;26.75;;;;;;;;;;5074940;28;20067;-73
2022/10/05 08:47:23;;;;;;;31.83;22.67;;;;;;;;;;5074837;28;20053;-74
2022/10/05 08:50:22;;;;;;;31.30;21.85;;;;;;;;;;5066706;28;20047;-74
2022/10/05 08:53:06;;;;;;;25.05;16.52;;;;;;;;;;5040619;28;20139;-73
2022/10/05 08:55:51;;;;;;;23.25;15.93;;;;;;;;;;5075307;28;20391;-74
2022/10/05 08:58:17;;;;;;;24.55;16.50;;;;;;;;;;5075101;28;20518;-75
2022/10/05 09:01:01;;;;;;;19.48;13.48;;;;;;;;;;5075186;28;20040;-74
2022/10/05 09:03:33;;;;;;;25.55;15.00;;;;;;;;;;5075355;28;20113;-74
2022/10/05 09:05:59;;;;;;;32.75;20.92;;;;;;;;;;5075322;28;20074;-73
2022/10/05 09:08:32;;;;;;;34.40;21.83;;;;;;;;;;5075328;28;20097;-73
2022/10/05 09:11:02;;;;;;;16.27;11.30;;;;;;;;;;5073676;28;20048;-74
2022/10/05 09:13:46;;;;;;;8.57;5.97;;;;;;;;;;5073687;28;20096;-73
2022/10/05 09:16:13;;;;;;;11.20;6.53;;;;;;;;;;5075313;28;20503;-73
2022/10/05 09:18:42;;;;;;;8.82;7.30;;;;;;;;;;5074999;28;20048;-73
2022/10/05 09:21:27;;;;;;;8.02;6.22;;;;;;;;;;5075270;28;20101;-73
2022/10/05 09:24:00;;;;;;;12.20;7.13;;;;;;;;;;5075697;28;20037;-73
2022/10/05 09:27:05;;;;;;;6.97;5.10;;;;;;;;;;5075513;28;20048;-73
2022/10/05 09:29:49;;;;;;;4.88;3.90;;;;;;;;;;5032443;28;20037;-73
2022/10/05 09:32:33;;;;;;;7.43;4.88;;;;;;;;;;5033316;28;20042;-73
2022/10/05 09:35:08;;;;;;;3.90;3.10;;;;;;;;;;5063061;28;20483;-73
2022/10/05 09:38:04;;;;;;;6.30;3.92;;;;;;;;;;5070784;28;20407;-73
2022/10/05 09:40:39;;;;;;;5.22;3.38;;;;;;;;;;5064998;28;20040;-73
2022/10/05 09:43:11;;;;;;;7.53;3.30;;;;;;;;;;5074827;28;20102;-73
2022/10/05 09:45:44;;;;;;;5.90;3.20;;;;;;;;;;5074666;28;20036;-73
2022/10/05 09:48:29;;;;;;;4.05;2.90;;;;;;;;;;5074936;28;20048;-73
2022/10/05 09:51:08;;;;;;;4.03;3.22;;;;;;;;;;5074419;28;20379;-73
2022/10/05 09:53:39;;;;;;;4.13;3.15;;;;;;;;;;5074680;28;20072;-73
2022/10/05 09:56:19;;;;;;;6.68;2.75;;;;;;;;;;5074705;28;20055;-73
2022/10/05 09:59:06;;;;;;;4.40;3.10;;;;;;;;;;5074645;28;20048;-73
2022/10/05 10:01:35;;;;;;;5.55;3.05;;;;;;;;;;5074465;28;20036;-73
2022/10/05 10:04:08;;;;;;;6.13;2.85;;;;;;;;;;5074167;28;20040;-73
2022/10/05 10:06:35;;;;;;;5.05;2.80;;;;;;;;;;5074675;28;20044;-73
2022/10/05 10:09:04;;;;;;;7.28;3.13;;;;;;;;;;5074673;28;20135;-73
2022/10/05 10:11:30;;;;;;;5.75;2.70;;;;;;;;;;5074953;28;20044;-73
2022/10/05 10:13:59;;;;;;;6.13;2.67;;;;;;;;;;5074392;28;20040;-73
2022/10/05 10:16:27;;;;;;;6.28;2.40;;;;;;;;;;5074204;28;20083;-73
2022/10/05 10:19:11;;;;;;;4.07;2.28;;;;;;;;;;5074198;28;20048;-73
2022/10/05 10:21:59;;;;;;;4.60;2.38;;;;;;;;;;5074089;28;20040;-73
2022/10/05 10:24:44;;;;;;;4.05;2.33;;;;;;;;;;5073433;28;20033;-73
2022/10/05 10:27:23;;;;;;;7.75;2.55;;;;;;;;;;5072747;28;20040;-73
2022/10/05 10:30:08;;;;;;;5.95;2.28;;;;;;;;;;5063856;28;20103;-73
2022/10/05 10:32:52;;;;;;;8.18;2.38;;;;;;;;;;5073472;28;20079;-73
2022/10/05 10:35:37;;;;;;;8.38;2.53;;;;;;;;;;5073393;28;20398;-73
2022/10/05 10:38:32;;;;;;;4.35;1.90;;;;;;;;;;5074170;28;20048;-73
2022/10/05 10:41:01;;;;;;;5.38;2.28;;;;;;;;;;5065019;28;20047;-73
2022/10/05 10:43:34;;;;;;;4.90;2.42;;;;;;;;;;5074229;28;20487;-73
2022/10/05 10:46:00;;;;;;;5.25;2.38;;;;;;;;;;5074074;28;20114;-73
2022/10/05 10:48:29;;;;;;;6.22;2.38;;;;;;;;;;5074277;28;20051;-73
2022/10/05 10:51:07;;;;;;;4.25;2.03;;;;;;;;;;5073577;28;20044;-73
2022/10/05 10:53:52;;;;;;;8.02;2.53;;;;;;;;;;5074544;28;20076;-73
2022/10/05 10:56:37;;;;;;;7.35;2.60;;;;;;;;;;5073119;28;20098;-73
2022/10/05 10:59:12;;;;;;;5.30;2.15;;;;;;;;;;5073913;28;20041;-73
2022/10/05 11:01:50;;;;;;;6.53;2.10;;;;;;;;;;5074792;28;20115;-73
2022/10/05 11:04:16;;;;;;;4.63;2.10;;;;;;;;;;5073662;28;20051;-73
2022/10/05 11:06:57;;;;;;;4.30;2.03;;;;;;;;;;5072737;28;20032;-74
2022/10/05 11:09:23;;;;;;;5.75;2.28;;;;;;;;;;5073388;28;20041;-73
2022/10/05 11:12:08;;;;;;;15.65;6.90;;;;;;;;;;5073654;28;20036;-73
2022/10/05 11:14:53;;;;;;;3.47;2.08;;;;;;;;;;5073768;28;20048;-73
2022/10/05 11:17:19;;;;;;;5.60;2.47;;;;;;;;;;5076889;28;20052;-73
2022/10/05 11:20:08;;;;;;;3.58;2.00;;;;;;;;;;5077080;28;20051;-72
2022/10/05 11:22:54;;;;;;;5.35;2.00;;;;;;;;;;5042693;28;20052;-73
2022/10/05 11:25:32;;;;;;;7.13;2.05;;;;;;;;;;5074822;28;20036;-73
2022/10/05 11:28:13;;;;;;;3.13;1.80;;;;;;;;;;5076690;28;20032;-73
2022/10/05 11:30:57;;;;;;;3.88;1.80;;;;;;;;;;5077175;28;20079;-73
2022/10/05 11:33:26;;;;;;;4.38;1.95;;;;;;;;;;5077569;28;20041;-73
2022/10/05 11:35:58;;;;;;;5.60;2.15;;;;;;;;;;5072912;28;20044;-73
2022/10/05 11:38:41;;;;;;;5.32;2.03;;;;;;;;;;5065991;28;20044;-73
2022/10/05 11:41:26;;;;;;;5.88;1.95;;;;;;;;;;5076913;28;20045;-73
2022/10/05 11:44:11;;;;;;;6.28;1.90;;;;;;;;;;5058484;28;20040;-73
2022/10/05 11:46:49;;;;;;;6.30;2.00;;;;;;;;;;5072580;28;20119;-73
2022/10/05 11:49:19;;;;;;;5.85;1.75;;;;;;;;;;5069581;28;20131;-73
2022/10/05 11:52:05;;;;;;;6.35;1.85;;;;;;;;;;5076183;28;20040;-73
2022/10/05 11:54:34;;;;;;;4.10;1.80;;;;;;;;;;5076830;28;20044;-73
2022/10/05 11:57:05;;;;;;;3.40;1.77;;;;;;;;;;5075774;28;20056;-74
2022/10/05 11:59:39;;;;;;;3.47;1.80;;;;;;;;;;5076405;28;20495;-73
2022/10/05 12:02:24;;;;;;;5.47;1.75;;;;;;;;;;5077058;28;20040;-73
2022/10/05 12:05:02;;;;;;;6.65;1.95;;;;;;;;;;5076681;28;20041;-73
2022/10/05 12:07:28;;;;;;;5.05;2.15;;;;;;;;;;5076660;28;20129;-74
2022/10/05 12:10:15;;;;;;;8.65;2.00;;;;;;;;;;5076785;28;20114;-73
2022/10/05 12:13:04;;;;;;;7.45;2.03;;;;;;;;;;5072720;28;20037;-73
2022/10/05 12:15:30;;;;;;;1.85;1.30;;;;;;;;;;5075838;28;20036;-73
2022/10/05 12:17:59;;;;;;;6.75;2.30;;;;;;;;;;5075697;28;20157;-73
2022/10/05 12:20:31;;;;;;;4.32;1.80;;;;;;;;;;5076880;28;20033;-72
2022/10/05 12:22:57;;;;;;;9.68;2.17;;;;;;;;;;5075233;28;20074;-77
2022/10/05 12:25:26;;;;;;;6.63;1.70;;;;;;;;;;5075398;28;20036;-74
2022/10/05 12:27:54;;;;;;;4.38;1.92;;;;;;;;;;5073931;28;20041;-74
2022/10/05 12:30:39;;;;;;;5.22;1.50;;;;;;;;;;5075098;28;20082;-72
2022/10/05 12:33:08;;;;;;;10.20;2.30;;;;;;;;;;5074233;28;20041;-73
2022/10/05 12:35:34;;;;;;;11.63;2.10;;;;;;;;;;5074954;28;20701;-73
2022/10/05 12:38:16;;;;;;;9.77;2.15;;;;;;;;;;5076180;28;20032;-73
2022/10/05 12:40:50;;;;;;;8.38;2.45;;;;;;;;;;5076254;28;20131;-73
2022/10/05 12:43:31;;;;;;;4.47;1.65;;;;;;;;;;5075381;28;20559;-73
2022/10/05 12:46:08;;;;;;;6.97;1.60;;;;;;;;;;5076082;28;20546;-73
2022/10/05 12:48:57;;;;;;;6.20;1.75;;;;;;;;;;5075660;28;20041;-73
2022/10/05 12:51:36;;;;;;;8.70;1.73;;;;;;;;;;5074136;28;20051;-73
2022/10/05 12:54:13;;;;;;;3.95;1.63;;;;;;;;;;5074030;28;20033;-73
2022/10/05 12:56:42;;;;;;;3.30;1.23;;;;;;;;;;5073651;28;20044;-73
2022/10/05 12:59:20;;;;;;;5.03;1.65;;;;;;;;;;5074344;28;20047;-73
2022/10/05 13:01:56;;;;;;;4.82;1.90;;;;;;;;;;5074639;28;20593;-73
2022/10/05 13:04:22;;;;;;;7.32;1.67;;;;;;;;;;5075167;28;20036;-73
2022/10/05 13:06:54;;;;;;;6.03;1.73;;;;;;;;;;5075647;28;20047;-73
2022/10/05 13:09:31;;;;;;;4.35;1.50;;;;;;;;;;5075488;28;20040;-73
2022/10/05 13:12:02;;;;;;;3.97;1.45;;;;;;;;;;5075627;28;20174;-73
2022/10/05 13:14:47;;;;;;;4.45;1.30;;;;;;;;;;5075570;28;20044;-73
2022/10/05 13:17:26;;;;;;;5.75;2.03;;;;;;;;;;5075483;28;20076;-73
2022/10/05 13:20:07;;;;;;;6.82;1.85;;;;;;;;;;5075249;28;20075;-73
2022/10/05 13:22:39;;;;;;;3.75;1.48;;;;;;;;;;5074253;28;20488;-73
2022/10/05 13:25:35;;;;;;;7.22;1.70;;;;;;;;;;5074981;28;20048;-73
2022/10/05 13:28:01;;;;;;;5.38;1.38;;;;;;;;;;5061732;28;20040;-73
2022/10/05 13:30:28;;;;;;;6.72;1.50;;;;;;;;;;5074943;28;20480;-73
2022/10/05 13:32:54;;;;;;;8.52;2.08;;;;;;;;;;5075677;28;20051;-73
2022/10/05 13:35:20;;;;;;;8.55;2.92;;;;;;;;;;5075404;28;20040;-73
2022/10/05 13:38:07;;;;;;;7.00;2.85;;;;;;;;;;5074164;28;20048;-73
2022/10/05 13:40:34;;;;;;;8.48;2.13;;;;;;;;;;5075293;28;20049;-73
2022/10/05 13:43:05;;;;;;;11.85;6.40;;;;;;;;;;5074929;28;20115;-73
2022/10/05 13:45:37;;;;;;;5.18;2.40;;;;;;;;;;5075609;28;20490;-73
2022/10/05 13:48:22;;;;;;;7.50;2.13;;;;;;;;;;5074874;28;20039;-73
2022/10/05 13:51:02;;;;;;;5.15;2.88;;;;;;;;;;5074888;28;20547;-73
2022/10/05 13:53:39;;;;;;;5.57;1.40;;;;;;;;;;5074330;28;20043;-73
2022/10/05 13:56:05;;;;;;;7.28;1.35;;;;;;;;;;5074569;28;20491;-73
2022/10/05 13:58:41;;;;;;;8.88;2.50;;;;;;;;;;5074340;28;20061;-73
2022/10/05 14:01:16;;;;;;;3.38;1.40;;;;;;;;;;5074576;28;20032;-73
2022/10/05 14:04:02;;;;;;;6.28;1.63;;;;;;;;;;5074479;28;20049;-73
2022/10/05 14:06:29;;;;;;;5.45;2.20;;;;;;;;;;5082168;28;20563;-72
2022/10/05 14:09:01;;;;;;;2.65;1.42;;;;;;;;;;5093769;28;20040;-73
2022/10/05 14:11:33;;;;;;;4.32;1.50;;;;;;;;;;5094648;28;20051;-73
2022/10/05 14:14:03;;;;;;;5.70;2.70;;;;;;;;;;5094738;28;20048;-72
2022/10/05 14:16:31;;;;;;;4.30;2.00;;;;;;;;;;5094924;28;20050;-73
2022/10/05 14:18:57;;;;;;;7.93;1.80;;;;;;;;;;5094623;28;20478;-73
2022/10/05 14:21:25;;;;;;;7.63;3.03;;;;;;;;;;5094861;28;20085;-72
2022/10/05 14:23:52;;;;;;;9.07;2.33;;;;;;;;;;5094591;28;20410;-73
2022/10/05 14:26:32;;;;;;;5.43;1.92;;;;;;;;;;5094436;28;20474;-72
2022/10/05 14:29:00;;;;;;;10.23;3.93;;;;;;;;;;5094625;28;20036;-72
2022/10/05 14:31:29;;;;;;;6.28;2.20;;;;;;;;;;5094488;28;20036;-72
2022/10/05 14:33:55;;;;;;;6.60;1.90;;;;;;;;;;5094766;28;20486;-72
2022/10/05 14:36:35;;;;;;;6.80;2.50;;;;;;;;;;5094624;28;20118;-73
2022/10/05 14:39:03;;;;;;;7.72;1.85;;;;;;;;;;5094365;28;20081;-72
2022/10/05 14:41:35;;;;;;;4.95;1.60;;;;;;;;;;5094339;28;20036;-73
2022/10/05 14:44:06;;;;;;;7.47;1.92;;;;;;;;;;5094026;28;20123;-72
2022/10/05 14:46:34;;;;;;;5.50;1.67;;;;;;;;;;5094230;28;20043;-72
2022/10/05 14:49:20;;;;;;;5.13;2.05;;;;;;;;;;5094946;28;20441;-72
2022/10/05 14:51:47;;;;;;;8.05;2.78;;;;;;;;;;5098556;28;20044;-72
2022/10/05 14:54:28;;;;;;;8.90;2.17;;;;;;;;;;5098150;28;20119;-73
2022/10/05 14:57:04;;;;;;;21.80;9.60;;;;;;;;;;5098244;28;20036;-72
2022/10/05 14:59:39;;;;;;;10.35;1.85;;;;;;;;;;5097975;28;20114;-72
2022/10/05 15:02:25;;;;;;;10.88;5.75;;;;;;;;;;5098172;28;20039;-73
2022/10/05 15:05:09;;;;;;;11.18;1.90;;;;;;;;;;5097873;28;20032;-72
2022/10/05 15:07:39;;;;;;;7.03;4.38;;;;;;;;;;5097843;28;20502;-72
2022/10/05 15:10:08;;;;;;;11.88;5.00;;;;;;;;;;5097953;28;20070;-72
2022/10/05 15:12:38;;;;;;;7.85;3.08;;;;;;;;;;5097975;28;20048;-73
2022/10/05 15:15:06;;;;;;;10.40;4.18;;;;;;;;;;5097457;28;20032;-72
2022/10/05 15:17:46;;;;;;;6.75;2.00;;;;;;;;;;5097738;28;20070;-72
2022/10/05 15:20:32;;;;;;;6.72;2.03;;;;;;;;;;5078423;28;20032;-71
2022/10/05 15:23:08;;;;;;;5.47;1.60;;;;;;;;;;5077201;28;20117;-73
2022/10/05 15:25:51;;;;;;;9.40;1.70;;;;;;;;;;5076996;28;20041;-73
2022/10/05 15:28:33;;;;;;;6.88;1.75;;;;;;;;;;5075379;28;20435;-73
2022/10/05 15:31:04;;;;;;;6.35;2.08;;;;;;;;;;5075887;28;20055;-73